sensor_id;sensor_type;location;lat;lon;timestamp;P1;durP1;ratioP1;P2;durP2;ratioP2
44981;SDS011;30716;41.740;-70.400;2023-05-10T00:01:41;0.40;;;0.30;;
44981;SDS011;30716;41.740;-70.400;2023-05-10T00:04:07;1.02;;;0.47;;
44981;SDS011;30716;41.740;-70.400;2023-05-10T00:06:33;0.73;;;0.30;;
44981;SDS011;30716;41.740;-70.400;2023-05-10T00:08:59;1.80;;;0.40;;
44981;SDS011;30716;41.740;-70.400;2023-05-10T00:11:25;1.17;;;0.20;;
44981;SDS011;30716;41.740;-70.400;2023-05-10T00:13:51;0.43;;;0.20;;
44981;SDS011;30716;41.740;-70.400;2023-05-10T00:16:17;0.50;;;0.22;;
44981;SDS011;30716;41.740;-70.400;2023-05-10T00:18:44;0.45;;;0.20;;
44981;SDS011;30716;41.740;-70.400;2023-05-10T00:21:10;2.42;;;0.20;;
44981;SDS011;30716;41.740;-70.400;2023-05-10T00:23:36;0.55;;;0.20;;
44981;SDS011;30716;41.740;-70.400;2023-05-10T00:26:02;0.80;;;0.30;;
44981;SDS011;30716;41.740;-70.400;2023-05-10T00:28:29;1.02;;;0.28;;
44981;SDS011;30716;41.740;-70.400;2023-05-10T00:30:55;0.63;;;0.30;;
44981;SDS011;30716;41.740;-70.400;2023-05-10T00:33:21;0.30;;;0.22;;
44981;SDS011;30716;41.740;-70.400;2023-05-10T00:35:47;0.43;;;0.22;;
44981;SDS011;30716;41.740;-70.400;2023-05-10T00:38:13;1.00;;;0.22;;
44981;SDS011;30716;41.740;-70.400;2023-05-10T00:40:39;0.30;;;0.30;;
44981;SDS011;30716;41.740;-70.400;2023-05-10T00:43:06;0.95;;;0.30;;
44981;SDS011;30716;41.740;-70.400;2023-05-10T00:45:32;1.73;;;0.25;;
44981;SDS011;30716;41.740;-70.400;2023-05-10T00:48:01;0.63;;;0.20;;
44981;SDS011;30716;41.740;-70.400;2023-05-10T00:50:29;0.35;;;0.25;;
44981;SDS011;30716;41.740;-70.400;2023-05-10T00:52:56;1.35;;;0.50;;
44981;SDS011;30716;41.740;-70.400;2023-05-10T00:55:24;0.43;;;0.20;;
44981;SDS011;30716;41.740;-70.400;2023-05-10T00:57:50;0.30;;;0.20;;
44981;SDS011;30716;41.740;-70.400;2023-05-10T01:00:18;0.40;;;0.30;;
44981;SDS011;30716;41.740;-70.400;2023-05-10T01:02:47;0.57;;;0.25;;
44981;SDS011;30716;41.740;-70.400;2023-05-10T01:05:14;1.83;;;0.30;;
44981;SDS011;30716;41.740;-70.400;2023-05-10T01:07:40;0.63;;;0.20;;
44981;SDS011;30716;41.740;-70.400;2023-05-10T01:10:07;0.68;;;0.20;;
44981;SDS011;30716;41.740;-70.400;2023-05-10T01:12:35;0.47;;;0.17;;
44981;SDS011;30716;41.740;-70.400;2023-05-10T01:15:05;0.20;;;0.20;;
44981;SDS011;30716;41.740;-70.400;2023-05-10T01:17:37;0.22;;;0.20;;
44981;SDS011;30716;41.740;-70.400;2023-05-10T01:20:06;0.65;;;0.25;;
44981;SDS011;30716;41.740;-70.400;2023-05-10T01:22:57;0.52;;;0.20;;
44981;SDS011;30716;41.740;-70.400;2023-05-10T01:26:04;0.50;;;0.20;;
44981;SDS011;30716;41.740;-70.400;2023-05-10T01:34:23;0.63;;;0.43;;
44981;SDS011;30716;41.740;-70.400;2023-05-10T01:37:07;0.98;;;0.20;;
44981;SDS011;30716;41.740;-70.400;2023-05-10T01:42:23;0.68;;;0.32;;
44981;SDS011;30716;41.740;-70.400;2023-05-10T01:44:57;0.60;;;0.30;;
44981;SDS011;30716;41.740;-70.400;2023-05-10T01:47:46;1.05;;;0.20;;
44981;SDS011;30716;41.740;-70.400;2023-05-10T01:50:30;1.60;;;0.22;;
44981;SDS011;30716;41.740;-70.400;2023-05-10T01:52:58;0.80;;;0.20;;
44981;SDS011;30716;41.740;-70.400;2023-05-10T01:55:28;0.35;;;0.20;;
44981;SDS011;30716;41.740;-70.400;2023-05-10T01:58:05;0.88;;;0.43;;
44981;SDS011;30716;41.740;-70.400;2023-05-10T02:00:34;0.75;;;0.20;;
44981;SDS011;30716;41.740;-70.400;2023-05-10T02:03:06;0.43;;;0.15;;
44981;SDS011;30716;41.740;-70.400;2023-05-10T02:05:35;0.30;;;0.15;;
44981;SDS011;30716;41.740;-70.400;2023-05-10T02:08:05;0.80;;;0.35;;
44981;SDS011;30716;41.740;-70.400;2023-05-10T02:10:38;0.73;;;0.20;;
44981;SDS011;30716;41.740;-70.400;2023-05-10T02:13:05;0.40;;;0.10;;
44981;SDS011;30716;41.740;-70.400;2023-05-10T02:15:33;0.75;;;0.20;;
44981;SDS011;30716;41.740;-70.400;2023-05-10T02:18:02;0.63;;;0.43;;
44981;SDS011;30716;41.740;-70.400;2023-05-10T02:20:29;0.93;;;0.22;;
44981;SDS011;30716;41.740;-70.400;2023-05-10T02:22:58;0.95;;;0.40;;
44981;SDS011;30716;41.740;-70.400;2023-05-10T02:25:26;0.43;;;0.22;;
44981;SDS011;30716;41.740;-70.400;2023-05-10T02:27:54;0.28;;;0.20;;
44981;SDS011;30716;41.740;-70.400;2023-05-10T02:30:22;0.47;;;0.28;;
44981;SDS011;30716;41.740;-70.400;2023-05-10T02:32:49;0.52;;;0.20;;
44981;SDS011;30716;41.740;-70.400;2023-05-10T02:35:17;0.40;;;0.40;;
44981;SDS011;30716;41.740;-70.400;2023-05-10T02:37:45;1.40;;;0.30;;
44981;SDS011;30716;41.740;-70.400;2023-05-10T02:40:12;0.57;;;0.20;;
44981;SDS011;30716;41.740;-70.400;2023-05-10T02:42:41;0.50;;;0.20;;
44981;SDS011;30716;41.740;-70.400;2023-05-10T02:45:12;0.38;;;0.15;;
44981;SDS011;30716;41.740;-70.400;2023-05-10T02:47:44;0.30;;;0.13;;
44981;SDS011;30716;41.740;-70.400;2023-05-10T02:50:10;0.30;;;0.30;;
44981;SDS011;30716;41.740;-70.400;2023-05-10T02:52:39;0.85;;;0.20;;
44981;SDS011;30716;41.740;-70.400;2023-05-10T02:55:12;0.63;;;0.20;;
44981;SDS011;30716;41.740;-70.400;2023-05-10T02:57:43;0.15;;;0.05;;
44981;SDS011;30716;41.740;-70.400;2023-05-10T03:00:16;0.68;;;0.20;;
44981;SDS011;30716;41.740;-70.400;2023-05-10T03:02:42;0.80;;;0.30;;
44981;SDS011;30716;41.740;-70.400;2023-05-10T03:05:10;1.05;;;0.30;;
44981;SDS011;30716;41.740;-70.400;2023-05-10T03:07:36;0.47;;;0.30;;
44981;SDS011;30716;41.740;-70.400;2023-05-10T03:10:03;1.33;;;0.20;;
44981;SDS011;30716;41.740;-70.400;2023-05-10T03:20:37;0.25;;;0.20;;
44981;SDS011;30716;41.740;-70.400;2023-05-10T03:25:43;0.82;;;0.20;;
44981;SDS011;30716;41.740;-70.400;2023-05-10T03:28:11;0.52;;;0.30;;
44981;SDS011;30716;41.740;-70.400;2023-05-10T03:30:40;0.20;;;0.20;;
44981;SDS011;30716;41.740;-70.400;2023-05-10T03:33:08;0.70;;;0.20;;
44981;SDS011;30716;41.740;-70.400;2023-05-10T03:35:34;0.50;;;0.20;;
44981;SDS011;30716;41.740;-70.400;2023-05-10T03:38:01;1.67;;;0.40;;
44981;SDS011;30716;41.740;-70.400;2023-05-10T03:40:27;0.47;;;0.40;;
44981;SDS011;30716;41.740;-70.400;2023-05-10T03:42:57;0.50;;;0.20;;
44981;SDS011;30716;41.740;-70.400;2023-05-10T03:45:24;0.10;;;0.10;;
44981;SDS011;30716;41.740;-70.400;2023-05-10T03:47:50;0.63;;;0.20;;
44981;SDS011;30716;41.740;-70.400;2023-05-10T03:50:16;0.30;;;0.15;;
44981;SDS011;30716;41.740;-70.400;2023-05-10T03:52:43;0.43;;;0.17;;
44981;SDS011;30716;41.740;-70.400;2023-05-10T03:55:09;0.35;;;0.20;;
44981;SDS011;30716;41.740;-70.400;2023-05-10T03:57:36;0.40;;;0.20;;
44981;SDS011;30716;41.740;-70.400;2023-05-10T04:00:02;0.57;;;0.15;;
44981;SDS011;30716;41.740;-70.400;2023-05-10T04:02:29;0.30;;;0.15;;
44981;SDS011;30716;41.740;-70.400;2023-05-10T04:04:55;0.52;;;0.17;;
44981;SDS011;30716;41.740;-70.400;2023-05-10T04:07:21;1.08;;;0.17;;
44981;SDS011;30716;41.740;-70.400;2023-05-10T04:09:48;0.08;;;0.00;;
44981;SDS011;30716;41.740;-70.400;2023-05-10T04:12:14;0.20;;;0.13;;
44981;SDS011;30716;41.740;-70.400;2023-05-10T04:14:40;0.35;;;0.15;;
44981;SDS011;30716;41.740;-70.400;2023-05-10T04:17:06;0.90;;;0.25;;
44981;SDS011;30716;41.740;-70.400;2023-05-10T04:19:32;0.40;;;0.20;;
44981;SDS011;30716;41.740;-70.400;2023-05-10T04:21:59;0.10;;;0.10;;
44981;SDS011;30716;41.740;-70.400;2023-05-10T04:24:25;0.38;;;0.20;;
44981;SDS011;30716;41.740;-70.400;2023-05-10T04:26:51;0.45;;;0.20;;
44981;SDS011;30716;41.740;-70.400;2023-05-10T04:29:19;0.17;;;0.13;;
44981;SDS011;30716;41.740;-70.400;2023-05-10T04:31:45;0.73;;;0.20;;
44981;SDS011;30716;41.740;-70.400;2023-05-10T04:34:11;0.70;;;0.20;;
44981;SDS011;30716;41.740;-70.400;2023-05-10T04:36:38;0.43;;;0.15;;
44981;SDS011;30716;41.740;-70.400;2023-05-10T04:39:04;0.15;;;0.10;;
44981;SDS011;30716;41.740;-70.400;2023-05-10T04:41:30;0.35;;;0.17;;
44981;SDS011;30716;41.740;-70.400;2023-05-10T04:43:56;0.88;;;0.25;;
44981;SDS011;30716;41.740;-70.400;2023-05-10T04:46:23;0.28;;;0.13;;
44981;SDS011;30716;41.740;-70.400;2023-05-10T04:48:49;0.32;;;0.30;;
44981;SDS011;30716;41.740;-70.400;2023-05-10T04:51:18;0.30;;;0.20;;
44981;SDS011;30716;41.740;-70.400;2023-05-10T04:53:45;0.60;;;0.22;;
44981;SDS011;30716;41.740;-70.400;2023-05-10T04:56:11;0.63;;;0.10;;
44981;SDS011;30716;41.740;-70.400;2023-05-10T04:58:37;0.77;;;0.47;;
44981;SDS011;30716;41.740;-70.400;2023-05-10T05:01:07;0.13;;;0.10;;
44981;SDS011;30716;41.740;-70.400;2023-05-10T05:03:33;1.02;;;0.40;;
44981;SDS011;30716;41.740;-70.400;2023-05-10T05:05:59;1.02;;;0.20;;
44981;SDS011;30716;41.740;-70.400;2023-05-10T05:08:26;0.40;;;0.20;;
44981;SDS011;30716;41.740;-70.400;2023-05-10T05:10:52;0.20;;;0.10;;
44981;SDS011;30716;41.740;-70.400;2023-05-10T05:13:18;0.20;;;0.20;;
44981;SDS011;30716;41.740;-70.400;2023-05-10T05:15:44;0.35;;;0.10;;
44981;SDS011;30716;41.740;-70.400;2023-05-10T05:18:10;0.30;;;0.20;;
44981;SDS011;30716;41.740;-70.400;2023-05-10T05:20:36;0.28;;;0.05;;
44981;SDS011;30716;41.740;-70.400;2023-05-10T05:23:03;0.73;;;0.30;;
44981;SDS011;30716;41.740;-70.400;2023-05-10T05:25:29;0.13;;;0.10;;
44981;SDS011;30716;41.740;-70.400;2023-05-10T05:27:55;0.22;;;0.10;;
44981;SDS011;30716;41.740;-70.400;2023-05-10T05:30:21;0.65;;;0.20;;
44981;SDS011;30716;41.740;-70.400;2023-05-10T05:32:47;0.30;;;0.15;;
44981;SDS011;30716;41.740;-70.400;2023-05-10T05:35:14;0.20;;;0.20;;
44981;SDS011;30716;41.740;-70.400;2023-05-10T05:37:40;0.20;;;0.10;;
44981;SDS011;30716;41.740;-70.400;2023-05-10T05:40:07;0.43;;;0.30;;
44981;SDS011;30716;41.740;-70.400;2023-05-10T05:42:33;0.10;;;0.10;;
44981;SDS011;30716;41.740;-70.400;2023-05-10T05:45:00;0.50;;;0.20;;
44981;SDS011;30716;41.740;-70.400;2023-05-10T05:47:26;0.50;;;0.20;;
44981;SDS011;30716;41.740;-70.400;2023-05-10T05:49:52;1.02;;;0.35;;
44981;SDS011;30716;41.740;-70.400;2023-05-10T05:52:18;0.50;;;0.10;;
44981;SDS011;30716;41.740;-70.400;2023-05-10T05:54:44;0.30;;;0.20;;
44981;SDS011;30716;41.740;-70.400;2023-05-10T05:57:10;0.65;;;0.25;;
44981;SDS011;30716;41.740;-70.400;2023-05-10T05:59:40;0.60;;;0.20;;
44981;SDS011;30716;41.740;-70.400;2023-05-10T06:02:09;0.22;;;0.13;;
44981;SDS011;30716;41.740;-70.400;2023-05-10T06:04:35;0.45;;;0.15;;
44981;SDS011;30716;41.740;-70.400;2023-05-10T06:07:02;0.50;;;0.20;;
44981;SDS011;30716;41.740;-70.400;2023-05-10T06:09:28;0.20;;;0.10;;
44981;SDS011;30716;41.740;-70.400;2023-05-10T06:11:54;1.20;;;0.20;;
44981;SDS011;30716;41.740;-70.400;2023-05-10T06:14:20;0.25;;;0.10;;
44981;SDS011;30716;41.740;-70.400;2023-05-10T06:16:47;0.43;;;0.30;;
44981;SDS011;30716;41.740;-70.400;2023-05-10T06:19:13;0.80;;;0.20;;
44981;SDS011;30716;41.740;-70.400;2023-05-10T06:21:39;0.43;;;0.20;;
44981;SDS011;30716;41.740;-70.400;2023-05-10T06:24:05;0.20;;;0.10;;
44981;SDS011;30716;41.740;-70.400;2023-05-10T06:26:32;0.40;;;0.10;;
44981;SDS011;30716;41.740;-70.400;2023-05-10T06:28:59;0.30;;;0.10;;
44981;SDS011;30716;41.740;-70.400;2023-05-10T06:31:26;0.50;;;0.10;;
44981;SDS011;30716;41.740;-70.400;2023-05-10T06:33:58;0.63;;;0.20;;
44981;SDS011;30716;41.740;-70.400;2023-05-10T06:36:24;0.57;;;0.20;;
44981;SDS011;30716;41.740;-70.400;2023-05-10T06:38:51;0.30;;;0.15;;
44981;SDS011;30716;41.740;-70.400;2023-05-10T06:41:17;0.50;;;0.20;;
44981;SDS011;30716;41.740;-70.400;2023-05-10T06:43:43;0.88;;;0.30;;
44981;SDS011;30716;41.740;-70.400;2023-05-10T06:46:10;0.15;;;0.10;;
44981;SDS011;30716;41.740;-70.400;2023-05-10T06:48:42;0.30;;;0.20;;
44981;SDS011;30716;41.740;-70.400;2023-05-10T06:51:08;0.45;;;0.30;;
44981;SDS011;30716;41.740;-70.400;2023-05-10T06:53:34;0.52;;;0.20;;
44981;SDS011;30716;41.740;-70.400;2023-05-10T06:56:01;0.30;;;0.10;;
44981;SDS011;30716;41.740;-70.400;2023-05-10T06:58:28;0.35;;;0.30;;
44981;SDS011;30716;41.740;-70.400;2023-05-10T07:00:54;0.55;;;0.10;;
44981;SDS011;30716;41.740;-70.400;2023-05-10T07:03:26;0.20;;;0.20;;
44981;SDS011;30716;41.740;-70.400;2023-05-10T07:05:52;0.82;;;0.20;;
44981;SDS011;30716;41.740;-70.400;2023-05-10T07:08:20;0.32;;;0.20;;
44981;SDS011;30716;41.740;-70.400;2023-05-10T07:10:47;0.30;;;0.10;;
44981;SDS011;30716;41.740;-70.400;2023-05-10T07:13:13;0.47;;;0.30;;
44981;SDS011;30716;41.740;-70.400;2023-05-10T07:15:39;0.20;;;0.15;;
44981;SDS011;30716;41.740;-70.400;2023-05-10T07:18:05;0.10;;;0.10;;
44981;SDS011;30716;41.740;-70.400;2023-05-10T07:20:31;0.30;;;0.20;;
44981;SDS011;30716;41.740;-70.400;2023-05-10T07:22:57;0.70;;;0.30;;
44981;SDS011;30716;41.740;-70.400;2023-05-10T07:25:24;0.20;;;0.20;;
44981;SDS011;30716;41.740;-70.400;2023-05-10T07:27:50;0.57;;;0.20;;
44981;SDS011;30716;41.740;-70.400;2023-05-10T07:30:16;0.40;;;0.10;;
44981;SDS011;30716;41.740;-70.400;2023-05-10T07:32:42;0.82;;;0.30;;
44981;SDS011;30716;41.740;-70.400;2023-05-10T07:35:08;0.50;;;0.20;;
44981;SDS011;30716;41.740;-70.400;2023-05-10T07:37:34;1.23;;;0.10;;
44981;SDS011;30716;41.740;-70.400;2023-05-10T07:40:01;0.40;;;0.20;;
44981;SDS011;30716;41.740;-70.400;2023-05-10T07:42:27;0.70;;;0.20;;
44981;SDS011;30716;41.740;-70.400;2023-05-10T07:44:53;0.50;;;0.30;;
44981;SDS011;30716;41.740;-70.400;2023-05-10T07:47:20;0.30;;;0.20;;
44981;SDS011;30716;41.740;-70.400;2023-05-10T07:49:46;0.20;;;0.10;;
44981;SDS011;30716;41.740;-70.400;2023-05-10T07:52:12;0.20;;;0.15;;
44981;SDS011;30716;41.740;-70.400;2023-05-10T07:54:38;0.43;;;0.20;;
44981;SDS011;30716;41.740;-70.400;2023-05-10T07:57:05;0.17;;;0.10;;
44981;SDS011;30716;41.740;-70.400;2023-05-10T07:59:31;0.10;;;0.10;;
44981;SDS011;30716;41.740;-70.400;2023-05-10T08:01:58;0.47;;;0.20;;
44981;SDS011;30716;41.740;-70.400;2023-05-10T08:04:24;0.35;;;0.20;;
44981;SDS011;30716;41.740;-70.400;2023-05-10T08:06:50;0.90;;;0.10;;
44981;SDS011;30716;41.740;-70.400;2023-05-10T08:09:16;0.47;;;0.10;;
44981;SDS011;30716;41.740;-70.400;2023-05-10T08:11:43;0.65;;;0.10;;
44981;SDS011;30716;41.740;-70.400;2023-05-10T08:14:09;1.23;;;0.40;;
44981;SDS011;30716;41.740;-70.400;2023-05-10T08:16:35;1.05;;;0.57;;
44981;SDS011;30716;41.740;-70.400;2023-05-10T08:19:01;0.30;;;0.25;;
44981;SDS011;30716;41.740;-70.400;2023-05-10T08:21:27;0.20;;;0.10;;
44981;SDS011;30716;41.740;-70.400;2023-05-10T08:23:54;0.40;;;0.20;;
44981;SDS011;30716;41.740;-70.400;2023-05-10T08:26:20;0.57;;;0.20;;
44981;SDS011;30716;41.740;-70.400;2023-05-10T08:28:46;0.25;;;0.13;;
44981;SDS011;30716;41.740;-70.400;2023-05-10T08:31:13;0.60;;;0.20;;
44981;SDS011;30716;41.740;-70.400;2023-05-10T08:33:39;0.45;;;0.20;;
44981;SDS011;30716;41.740;-70.400;2023-05-10T08:36:05;0.40;;;0.15;;
44981;SDS011;30716;41.740;-70.400;2023-05-10T08:38:31;0.45;;;0.13;;
44981;SDS011;30716;41.740;-70.400;2023-05-10T08:40:57;0.70;;;0.20;;
44981;SDS011;30716;41.740;-70.400;2023-05-10T08:43:28;0.20;;;0.10;;
44981;SDS011;30716;41.740;-70.400;2023-05-10T08:45:55;0.63;;;0.20;;
44981;SDS011;30716;41.740;-70.400;2023-05-10T08:48:22;0.65;;;0.30;;
44981;SDS011;30716;41.740;-70.400;2023-05-10T08:50:53;0.47;;;0.32;;
44981;SDS011;30716;41.740;-70.400;2023-05-10T08:53:21;0.50;;;0.32;;
44981;SDS011;30716;41.740;-70.400;2023-05-10T08:55:51;0.63;;;0.20;;
44981;SDS011;30716;41.740;-70.400;2023-05-10T08:58:18;0.35;;;0.20;;
44981;SDS011;30716;41.740;-70.400;2023-05-10T09:00:48;0.40;;;0.20;;
44981;SDS011;30716;41.740;-70.400;2023-05-10T09:03:17;0.38;;;0.28;;
44981;SDS011;30716;41.740;-70.400;2023-05-10T09:05:44;0.47;;;0.32;;
44981;SDS011;30716;41.740;-70.400;2023-05-10T09:08:10;0.30;;;0.20;;
44981;SDS011;30716;41.740;-70.400;2023-05-10T09:10:38;0.20;;;0.20;;
44981;SDS011;30716;41.740;-70.400;2023-05-10T09:13:05;0.32;;;0.20;;
44981;SDS011;30716;41.740;-70.400;2023-05-10T09:15:33;0.57;;;0.10;;
44981;SDS011;30716;41.740;-70.400;2023-05-10T09:17:59;1.45;;;0.20;;
44981;SDS011;30716;41.740;-70.400;2023-05-10T09:20:27;0.35;;;0.17;;
44981;SDS011;30716;41.740;-70.400;2023-05-10T09:22:53;0.30;;;0.20;;
44981;SDS011;30716;41.740;-70.400;2023-05-10T09:25:20;1.33;;;0.65;;
44981;SDS011;30716;41.740;-70.400;2023-05-10T09:27:47;0.50;;;0.20;;
44981;SDS011;30716;41.740;-70.400;2023-05-10T09:30:17;0.35;;;0.30;;
44981;SDS011;30716;41.740;-70.400;2023-05-10T09:32:53;1.02;;;0.30;;
44981;SDS011;30716;41.740;-70.400;2023-05-10T09:35:21;0.47;;;0.22;;
44981;SDS011;30716;41.740;-70.400;2023-05-10T09:37:49;0.40;;;0.20;;
44981;SDS011;30716;41.740;-70.400;2023-05-10T09:40:22;0.95;;;0.32;;
44981;SDS011;30716;41.740;-70.400;2023-05-10T09:42:53;0.95;;;0.30;;
44981;SDS011;30716;41.740;-70.400;2023-05-10T09:45:23;0.52;;;0.20;;
44981;SDS011;30716;41.740;-70.400;2023-05-10T09:47:51;0.43;;;0.15;;
44981;SDS011;30716;41.740;-70.400;2023-05-10T09:50:18;1.85;;;0.32;;
44981;SDS011;30716;41.740;-70.400;2023-05-10T09:52:49;1.27;;;0.30;;
44981;SDS011;30716;41.740;-70.400;2023-05-10T09:55:18;1.25;;;0.30;;
44981;SDS011;30716;41.740;-70.400;2023-05-10T09:57:49;0.52;;;0.22;;
44981;SDS011;30716;41.740;-70.400;2023-05-10T10:00:24;0.55;;;0.28;;
44981;SDS011;30716;41.740;-70.400;2023-05-10T10:02:58;0.52;;;0.20;;
44981;SDS011;30716;41.740;-70.400;2023-05-10T10:05:31;0.75;;;0.20;;
44981;SDS011;30716;41.740;-70.400;2023-05-10T10:07:59;0.60;;;0.30;;
44981;SDS011;30716;41.740;-70.400;2023-05-10T10:10:27;0.45;;;0.20;;
44981;SDS011;30716;41.740;-70.400;2023-05-10T10:12:54;0.32;;;0.17;;
44981;SDS011;30716;41.740;-70.400;2023-05-10T10:15:21;0.95;;;0.32;;
44981;SDS011;30716;41.740;-70.400;2023-05-10T10:17:48;0.52;;;0.17;;
44981;SDS011;30716;41.740;-70.400;2023-05-10T10:20:15;1.13;;;0.20;;
44981;SDS011;30716;41.740;-70.400;2023-05-10T10:22:43;0.20;;;0.20;;
44981;SDS011;30716;41.740;-70.400;2023-05-10T10:25:13;0.68;;;0.30;;
44981;SDS011;30716;41.740;-70.400;2023-05-10T10:32:57;0.20;;;0.10;;
44981;SDS011;30716;41.740;-70.400;2023-05-10T10:35:31;0.95;;;0.20;;
44981;SDS011;30716;41.740;-70.400;2023-05-10T10:37:58;0.50;;;0.40;;
44981;SDS011;30716;41.740;-70.400;2023-05-10T10:40:25;0.70;;;0.20;;
44981;SDS011;30716;41.740;-70.400;2023-05-10T10:42:51;0.63;;;0.10;;
44981;SDS011;30716;41.740;-70.400;2023-05-10T10:45:19;0.38;;;0.20;;
44981;SDS011;30716;41.740;-70.400;2023-05-10T10:47:46;0.30;;;0.10;;
44981;SDS011;30716;41.740;-70.400;2023-05-10T10:50:12;0.25;;;0.10;;
44981;SDS011;30716;41.740;-70.400;2023-05-10T10:55:10;0.73;;;0.55;;
44981;SDS011;30716;41.740;-70.400;2023-05-10T11:00:44;0.35;;;0.20;;
44981;SDS011;30716;41.740;-70.400;2023-05-10T11:03:06;0.30;;;0.20;;
44981;SDS011;30716;41.740;-70.400;2023-05-10T11:05:39;0.77;;;0.20;;
44981;SDS011;30716;41.740;-70.400;2023-05-10T11:15:55;0.35;;;0.10;;
44981;SDS011;30716;41.740;-70.400;2023-05-10T11:18:28;0.20;;;0.15;;
44981;SDS011;30716;41.740;-70.400;2023-05-10T11:20:59;0.22;;;0.20;;
44981;SDS011;30716;41.740;-70.400;2023-05-10T11:23:31;0.90;;;0.10;;
44981;SDS011;30716;41.740;-70.400;2023-05-10T11:26:12;0.50;;;0.20;;
44981;SDS011;30716;41.740;-70.400;2023-05-10T11:28:45;0.95;;;0.30;;
44981;SDS011;30716;41.740;-70.400;2023-05-10T11:31:16;0.32;;;0.20;;
44981;SDS011;30716;41.740;-70.400;2023-05-10T11:33:43;0.73;;;0.10;;
44981;SDS011;30716;41.740;-70.400;2023-05-10T11:36:14;0.43;;;0.20;;
44981;SDS011;30716;41.740;-70.400;2023-05-10T11:38:41;1.15;;;0.60;;
44981;SDS011;30716;41.740;-70.400;2023-05-10T11:41:08;0.30;;;0.30;;
44981;SDS011;30716;41.740;-70.400;2023-05-10T11:43:36;0.38;;;0.17;;
44981;SDS011;30716;41.740;-70.400;2023-05-10T11:46:10;0.85;;;0.20;;
44981;SDS011;30716;41.740;-70.400;2023-05-10T11:48:41;0.70;;;0.10;;
44981;SDS011;30716;41.740;-70.400;2023-05-10T11:51:10;0.93;;;0.40;;
44981;SDS011;30716;41.740;-70.400;2023-05-10T11:53:36;0.55;;;0.20;;
44981;SDS011;30716;41.740;-70.400;2023-05-10T11:56:09;0.13;;;0.10;;
44981;SDS011;30716;41.740;-70.400;2023-05-10T11:58:36;0.47;;;0.20;;
44981;SDS011;30716;41.740;-70.400;2023-05-10T12:01:04;0.85;;;0.22;;
44981;SDS011;30716;41.740;-70.400;2023-05-10T12:03:32;0.40;;;0.20;;
44981;SDS011;30716;41.740;-70.400;2023-05-10T12:05:58;1.63;;;0.55;;
44981;SDS011;30716;41.740;-70.400;2023-05-10T12:08:26;1.20;;;0.30;;
44981;SDS011;30716;41.740;-70.400;2023-05-10T12:11:03;0.95;;;0.35;;
44981;SDS011;30716;41.740;-70.400;2023-05-10T12:13:30;0.98;;;0.30;;
44981;SDS011;30716;41.740;-70.400;2023-05-10T12:15:57;0.60;;;0.30;;
44981;SDS011;30716;41.740;-70.400;2023-05-10T12:18:24;2.03;;;0.57;;
44981;SDS011;30716;41.740;-70.400;2023-05-10T12:20:53;1.30;;;0.40;;
44981;SDS011;30716;41.740;-70.400;2023-05-10T12:23:27;1.33;;;0.40;;
44981;SDS011;30716;41.740;-70.400;2023-05-10T12:25:54;0.60;;;0.40;;
44981;SDS011;30716;41.740;-70.400;2023-05-10T12:28:30;0.70;;;0.38;;
44981;SDS011;30716;41.740;-70.400;2023-05-10T12:30:59;0.60;;;0.40;;
44981;SDS011;30716;41.740;-70.400;2023-05-10T12:33:26;0.70;;;0.30;;
44981;SDS011;30716;41.740;-70.400;2023-05-10T12:36:00;0.25;;;0.20;;
44981;SDS011;30716;41.740;-70.400;2023-05-10T12:41:08;0.98;;;0.32;;
44981;SDS011;30716;41.740;-70.400;2023-05-10T12:43:35;1.00;;;0.40;;
44981;SDS011;30716;41.740;-70.400;2023-05-10T12:46:07;1.98;;;0.50;;
44981;SDS011;30716;41.740;-70.400;2023-05-10T12:48:34;1.27;;;0.55;;
44981;SDS011;30716;41.740;-70.400;2023-05-10T12:51:01;0.98;;;0.43;;
44981;SDS011;30716;41.740;-70.400;2023-05-10T12:53:29;0.60;;;0.30;;
44981;SDS011;30716;41.740;-70.400;2023-05-10T12:55:55;3.28;;;0.55;;
44981;SDS011;30716;41.740;-70.400;2023-05-10T12:58:21;1.10;;;0.60;;
44981;SDS011;30716;41.740;-70.400;2023-05-10T13:00:48;0.85;;;0.57;;
44981;SDS011;30716;41.740;-70.400;2023-05-10T13:03:14;1.33;;;0.45;;
44981;SDS011;30716;41.740;-70.400;2023-05-10T13:05:41;1.08;;;0.47;;
44981;SDS011;30716;41.740;-70.400;2023-05-10T13:08:07;2.00;;;0.50;;
44981;SDS011;30716;41.740;-70.400;2023-05-10T13:10:33;2.75;;;0.65;;
44981;SDS011;30716;41.740;-70.400;2023-05-10T13:12:59;1.80;;;0.40;;
44981;SDS011;30716;41.740;-70.400;2023-05-10T13:15:26;2.10;;;0.43;;
44981;SDS011;30716;41.740;-70.400;2023-05-10T13:17:53;2.33;;;0.90;;
44981;SDS011;30716;41.740;-70.400;2023-05-10T13:20:19;0.80;;;0.70;;
44981;SDS011;30716;41.740;-70.400;2023-05-10T13:22:46;0.75;;;0.43;;
44981;SDS011;30716;41.740;-70.400;2023-05-10T13:25:12;2.13;;;0.55;;
44981;SDS011;30716;41.740;-70.400;2023-05-10T13:27:39;2.40;;;0.50;;
44981;SDS011;30716;41.740;-70.400;2023-05-10T13:30:08;0.95;;;0.50;;
44981;SDS011;30716;41.740;-70.400;2023-05-10T13:32:36;1.77;;;0.60;;
44981;SDS011;30716;41.740;-70.400;2023-05-10T13:35:02;1.20;;;0.40;;
44981;SDS011;30716;41.740;-70.400;2023-05-10T13:37:30;1.80;;;0.47;;
44981;SDS011;30716;41.740;-70.400;2023-05-10T13:39:59;1.38;;;0.60;;
44981;SDS011;30716;41.740;-70.400;2023-05-10T13:42:25;1.00;;;0.50;;
44981;SDS011;30716;41.740;-70.400;2023-05-10T13:44:52;3.22;;;0.80;;
44981;SDS011;30716;41.740;-70.400;2023-05-10T13:49:53;0.82;;;0.60;;
44981;SDS011;30716;41.740;-70.400;2023-05-10T13:52:19;0.47;;;0.40;;
44981;SDS011;30716;41.740;-70.400;2023-05-10T13:54:46;1.77;;;0.77;;
44981;SDS011;30716;41.740;-70.400;2023-05-10T13:57:12;1.48;;;0.43;;
44981;SDS011;30716;41.740;-70.400;2023-05-10T13:59:39;2.08;;;0.55;;
44981;SDS011;30716;41.740;-70.400;2023-05-10T14:02:05;1.20;;;0.38;;
44981;SDS011;30716;41.740;-70.400;2023-05-10T14:04:32;1.27;;;0.63;;
44981;SDS011;30716;41.740;-70.400;2023-05-10T14:06:59;1.48;;;0.50;;
44981;SDS011;30716;41.740;-70.400;2023-05-10T14:09:25;2.05;;;0.38;;
44981;SDS011;30716;41.740;-70.400;2023-05-10T14:11:51;1.95;;;0.55;;
44981;SDS011;30716;41.740;-70.400;2023-05-10T14:14:17;1.65;;;0.60;;
44981;SDS011;30716;41.740;-70.400;2023-05-10T14:16:44;0.80;;;0.40;;
44981;SDS011;30716;41.740;-70.400;2023-05-10T14:19:10;1.95;;;0.65;;
44981;SDS011;30716;41.740;-70.400;2023-05-10T14:21:37;1.58;;;0.70;;
44981;SDS011;30716;41.740;-70.400;2023-05-10T14:24:03;2.83;;;0.73;;
44981;SDS011;30716;41.740;-70.400;2023-05-10T14:26:31;0.82;;;0.57;;
44981;SDS011;30716;41.740;-70.400;2023-05-10T14:28:58;0.82;;;0.50;;
44981;SDS011;30716;41.740;-70.400;2023-05-10T14:31:24;1.95;;;0.60;;
44981;SDS011;30716;41.740;-70.400;2023-05-10T14:33:50;1.25;;;0.52;;
44981;SDS011;30716;41.740;-70.400;2023-05-10T14:36:17;1.50;;;0.70;;
44981;SDS011;30716;41.740;-70.400;2023-05-10T14:38:43;2.00;;;0.73;;
44981;SDS011;30716;41.740;-70.400;2023-05-10T14:41:09;2.53;;;0.65;;
44981;SDS011;30716;41.740;-70.400;2023-05-10T14:43:39;1.38;;;0.80;;
44981;SDS011;30716;41.740;-70.400;2023-05-10T14:46:06;5.38;;;0.95;;
44981;SDS011;30716;41.740;-70.400;2023-05-10T14:48:32;2.97;;;0.50;;
44981;SDS011;30716;41.740;-70.400;2023-05-10T14:50:58;2.92;;;0.70;;
44981;SDS011;30716;41.740;-70.400;2023-05-10T14:53:25;1.20;;;0.88;;
44981;SDS011;30716;41.740;-70.400;2023-05-10T14:55:51;3.42;;;0.63;;
44981;SDS011;30716;41.740;-70.400;2023-05-10T14:58:17;2.25;;;0.80;;
44981;SDS011;30716;41.740;-70.400;2023-05-10T15:00:43;1.17;;;0.57;;
44981;SDS011;30716;41.740;-70.400;2023-05-10T15:03:09;0.88;;;0.40;;
44981;SDS011;30716;41.740;-70.400;2023-05-10T15:05:36;0.70;;;0.52;;
44981;SDS011;30716;41.740;-70.400;2023-05-10T15:08:03;1.10;;;0.47;;